PWSweather.com
Personal Weather Stations
Station Observations
NCOUTPOST
Sheer Clifftop Utah Mountain, Waynesville, NC 28785

Sheer Clifftop Utah MountainWaynesville, NC 28785

Lat: 35.548, Lon: -82.982

Elevation: 3500

Station Type: Davis VUE 6250

Latest ConditionsUpdated 2:39:08 AM EST Friday, Feb 24, 2017
Currently Today's Max Today's Min Today's Average
Temperature 53.8°F12.1°C 54.0°F12.2°C 52.8°F11.6°C 53.5°F11.9°C
Dew Point 48.1°F8.9°C 48.7°F9.3°C 48.0°F8.9°C 48.4°F9.1°C
Winds 2.0 mph E3.2 kmh E 7.0 mph E11.3 kmh E - 2.9 mph 4.7 kmh
Wind Gusts 4.0 mph6.4 kmh 8.0 mph12.9 kmh - -
Humidity 81% 85% 81% 83%
Pressure 29.76 in1007.8 mb 29.76 in1007.8 mb 29.76 in1007.8 mb -
Hour Temp Dew Point Humidity Winds Wind Gusts Pressure Precip Precip Rate Daily Precip Total
02:39 AM 53.8°F12.1°C 48.1°F8.9°C 81% 2.0 mph E3.2 kmh E 4.0 mph6.4 kmh 29.76 in1007.8 mb 0.00 in0.0 mm 0.00 in0.0 mm 0.00 in0.0 mm
02:38 AM 53.8°F12.1°C 48.1°F8.9°C 81% 3.0 mph ESE4.8 kmh ESE 4.0 mph6.4 kmh 29.76 in1007.8 mb 0.00 in0.0 mm 0.00 in0.0 mm 0.00 in0.0 mm
02:37 AM 53.8°F12.1°C 48.1°F8.9°C 81% 3.0 mph ESE4.8 kmh ESE 3.0 mph4.8 kmh 29.76 in1007.8 mb 0.00 in0.0 mm 0.00 in0.0 mm 0.00 in0.0 mm
02:36 AM 53.8°F12.1°C 48.1°F8.9°C 81% 3.0 mph E4.8 kmh E 3.0 mph4.8 kmh 29.76 in1007.8 mb 0.00 in0.0 mm 0.00 in0.0 mm 0.00 in0.0 mm
02:35 AM 53.8°F12.1°C 48.1°F8.9°C 81% 3.0 mph E4.8 kmh E 3.0 mph4.8 kmh 29.76 in1007.8 mb 0.00 in0.0 mm 0.00 in0.0 mm 0.00 in0.0 mm
02:34 AM 53.8°F12.1°C 48.1°F8.9°C 81% 2.0 mph ESE3.2 kmh ESE 8.0 mph12.9 kmh 29.76 in1007.8 mb 0.00 in0.0 mm 0.00 in0.0 mm 0.00 in0.0 mm
02:33 AM 53.7°F12.1°C 48.0°F8.9°C 81% 5.0 mph SE8.0 kmh SE 8.0 mph12.9 kmh 29.76 in1007.8 mb 0.00 in0.0 mm 0.00 in0.0 mm 0.00 in0.0 mm
02:32 AM 53.7°F12.1°C 48.0°F8.9°C 81% 5.0 mph E8.0 kmh E 8.0 mph12.9 kmh 29.76 in1007.8 mb 0.00 in0.0 mm 0.00 in0.0 mm 0.00 in0.0 mm
02:31 AM 53.7°F12.1°C 48.0°F8.9°C 81% 5.0 mph ESE8.0 kmh ESE 8.0 mph12.9 kmh 29.76 in1007.8 mb 0.00 in0.0 mm 0.00 in0.0 mm 0.00 in0.0 mm
02:30 AM 53.7°F12.1°C 48.0°F8.9°C 81% 3.0 mph ESE4.8 kmh ESE 8.0 mph12.9 kmh 29.76 in1007.8 mb 0.00 in0.0 mm 0.00 in0.0 mm 0.00 in0.0 mm
02:29 AM 53.7°F12.1°C 48.0°F8.9°C 81% 4.0 mph E6.4 kmh E 8.0 mph12.9 kmh 29.76 in1007.8 mb 0.00 in0.0 mm 0.00 in0.0 mm 0.00 in0.0 mm
02:28 AM 53.7°F12.1°C 48.0°F8.9°C 81% 5.0 mph E8.0 kmh E 8.0 mph12.9 kmh 29.76 in1007.8 mb 0.00 in0.0 mm 0.00 in0.0 mm 0.00 in0.0 mm
02:27 AM 53.8°F12.1°C 48.1°F8.9°C 81% 4.0 mph E6.4 kmh E 8.0 mph12.9 kmh 29.76 in1007.8 mb 0.00 in0.0 mm 0.00 in0.0 mm 0.00 in0.0 mm
02:26 AM 53.9°F12.2°C 48.2°F9.0°C 81% 2.0 mph ESE3.2 kmh ESE 8.0 mph12.9 kmh 29.76 in1007.8 mb 0.00 in0.0 mm 0.00 in0.0 mm 0.00 in0.0 mm
02:25 AM 53.9°F12.2°C 48.2°F9.0°C 81% 3.0 mph E4.8 kmh E 8.0 mph12.9 kmh 29.76 in1007.8 mb 0.00 in0.0 mm 0.00 in0.0 mm 0.00 in0.0 mm
02:24 AM 53.9°F12.2°C 48.2°F9.0°C 81% 6.0 mph E9.7 kmh E 8.0 mph12.9 kmh 29.76 in1007.8 mb 0.00 in0.0 mm 0.00 in0.0 mm 0.00 in0.0 mm
02:23 AM 54.0°F12.2°C 48.3°F9.1°C 81% 3.0 mph E4.8 kmh E 8.0 mph12.9 kmh 29.76 in1007.8 mb 0.00 in0.0 mm 0.00 in0.0 mm 0.00 in0.0 mm
02:22 AM 53.9°F12.2°C 48.2°F9.0°C 81% 4.0 mph E6.4 kmh E 8.0 mph12.9 kmh 29.76 in1007.8 mb 0.00 in0.0 mm 0.00 in0.0 mm 0.00 in0.0 mm
02:21 AM 53.9°F12.2°C 48.2°F9.0°C 81% 6.0 mph ESE9.7 kmh ESE 8.0 mph12.9 kmh 29.76 in1007.8 mb 0.00 in0.0 mm 0.00 in0.0 mm 0.00 in0.0 mm
02:20 AM 53.9°F12.2°C 48.2°F9.0°C 81% 6.0 mph E9.7 kmh E 8.0 mph12.9 kmh 29.76 in1007.8 mb 0.00 in0.0 mm 0.00 in0.0 mm 0.00 in0.0 mm
02:19 AM 53.9°F12.2°C 48.2°F9.0°C 81% 4.0 mph E6.4 kmh E 8.0 mph12.9 kmh 29.76 in1007.8 mb 0.00 in0.0 mm 0.00 in0.0 mm 0.00 in0.0 mm
02:18 AM 53.9°F12.2°C 48.2°F9.0°C 81% 6.0 mph E9.7 kmh E 8.0 mph12.9 kmh 29.76 in1007.8 mb 0.00 in0.0 mm 0.00 in0.0 mm 0.00 in0.0 mm
02:17 AM 53.9°F12.2°C 48.2°F9.0°C 81% 5.0 mph E8.0 kmh E 8.0 mph12.9 kmh 29.76 in1007.8 mb 0.00 in0.0 mm 0.00 in0.0 mm 0.00 in0.0 mm
02:16 AM 53.9°F12.2°C 48.5°F9.2°C 82% 7.0 mph ESE11.3 kmh ESE 8.0 mph12.9 kmh 29.76 in1007.8 mb 0.00 in0.0 mm 0.00 in0.0 mm 0.00 in0.0 mm
02:15 AM 53.9°F12.2°C 48.5°F9.2°C 82% 6.0 mph E9.7 kmh E 8.0 mph12.9 kmh 29.76 in1007.8 mb 0.00 in0.0 mm 0.00 in0.0 mm 0.00 in0.0 mm
02:14 AM 53.9°F12.2°C 48.5°F9.2°C 82% 4.0 mph E6.4 kmh E 8.0 mph12.9 kmh 29.76 in1007.8 mb 0.00 in0.0 mm 0.00 in0.0 mm 0.00 in0.0 mm
02:13 AM 53.9°F12.2°C 48.5°F9.2°C 82% 6.0 mph ESE9.7 kmh ESE 7.0 mph11.3 kmh 29.76 in1007.8 mb 0.00 in0.0 mm 0.00 in0.0 mm 0.00 in0.0 mm
02:12 AM 53.9°F12.2°C 48.5°F9.2°C 82% 7.0 mph E11.3 kmh E 7.0 mph11.3 kmh 29.76 in1007.8 mb 0.00 in0.0 mm 0.00 in0.0 mm 0.00 in0.0 mm
02:11 AM 53.9°F12.2°C 48.5°F9.2°C 82% 6.0 mph E9.7 kmh E 7.0 mph11.3 kmh 29.76 in1007.8 mb 0.00 in0.0 mm 0.00 in0.0 mm 0.00 in0.0 mm
02:10 AM 53.8°F12.1°C 48.4°F9.1°C 82% 6.0 mph E9.7 kmh E 7.0 mph11.3 kmh 29.76 in1007.8 mb 0.00 in0.0 mm 0.00 in0.0 mm 0.00 in0.0 mm
02:09 AM 53.8°F12.1°C 48.4°F9.1°C 82% 4.0 mph E6.4 kmh E 7.0 mph11.3 kmh 29.76 in1007.8 mb 0.00 in0.0 mm 0.00 in0.0 mm 0.00 in0.0 mm
02:08 AM 53.8°F12.1°C 48.4°F9.1°C 82% 5.0 mph E8.0 kmh E 7.0 mph11.3 kmh 29.76 in1007.8 mb 0.00 in0.0 mm 0.00 in0.0 mm 0.00 in0.0 mm
02:07 AM 53.7°F12.1°C 48.3°F9.1°C 82% 4.0 mph ENE6.4 kmh ENE 6.0 mph9.7 kmh 29.76 in1007.8 mb 0.00 in0.0 mm 0.00 in0.0 mm 0.00 in0.0 mm
02:06 AM 53.7°F12.1°C 48.7°F9.3°C 83% 4.0 mph E6.4 kmh E 6.0 mph9.7 kmh 29.76 in1007.8 mb 0.00 in0.0 mm 0.00 in0.0 mm 0.00 in0.0 mm
02:05 AM 53.6°F12.0°C 48.6°F9.2°C 83% 3.0 mph E4.8 kmh E 3.0 mph4.8 kmh 29.76 in1007.8 mb 0.00 in0.0 mm 0.00 in0.0 mm 0.00 in0.0 mm
02:04 AM 53.6°F12.0°C 48.6°F9.2°C 83% 2.0 mph E3.2 kmh E 4.0 mph6.4 kmh 29.76 in1007.8 mb 0.00 in0.0 mm 0.00 in0.0 mm 0.00 in0.0 mm
02:03 AM 53.5°F11.9°C 48.5°F9.2°C 83% 3.0 mph E4.8 kmh E 4.0 mph6.4 kmh 29.76 in1007.8 mb 0.00 in0.0 mm 0.00 in0.0 mm 0.00 in0.0 mm
02:02 AM 53.5°F11.9°C 48.5°F9.2°C 83% 3.0 mph ENE4.8 kmh ENE 4.0 mph6.4 kmh 29.76 in1007.8 mb 0.00 in0.0 mm 0.00 in0.0 mm 0.00 in0.0 mm
02:01 AM 53.4°F11.9°C 48.4°F9.1°C 83% 2.0 mph ENE3.2 kmh ENE 4.0 mph6.4 kmh 29.76 in1007.8 mb 0.00 in0.0 mm 0.00 in0.0 mm 0.00 in0.0 mm
02:00 AM 53.4°F11.9°C 48.7°F9.3°C 84% 2.0 mph ENE3.2 kmh ENE 4.0 mph6.4 kmh 29.76 in1007.8 mb 0.00 in0.0 mm 0.00 in0.0 mm 0.00 in0.0 mm
01:59 AM 53.4°F11.9°C 48.7°F9.3°C 84% 3.0 mph ENE4.8 kmh ENE 4.0 mph6.4 kmh 29.76 in1007.8 mb 0.00 in0.0 mm 0.00 in0.0 mm 0.00 in0.0 mm
01:58 AM 53.3°F11.8°C 48.6°F9.2°C 84% 2.0 mph NE3.2 kmh NE 4.0 mph6.4 kmh 29.76 in1007.8 mb 0.00 in0.0 mm 0.00 in0.0 mm 0.00 in0.0 mm
01:57 AM 53.3°F11.8°C 48.6°F9.2°C 84% 1.0 mph NE1.6 kmh NE 4.0 mph6.4 kmh 29.76 in1007.8 mb 0.00 in0.0 mm 0.00 in0.0 mm 0.00 in0.0 mm
01:56 AM 53.2°F11.8°C 48.5°F9.2°C 84% 3.0 mph ENE4.8 kmh ENE 4.0 mph6.4 kmh 29.76 in1007.8 mb 0.00 in0.0 mm 0.00 in0.0 mm 0.00 in0.0 mm
01:55 AM 53.2°F11.8°C 48.5°F9.2°C 84% 2.0 mph ENE3.2 kmh ENE 4.0 mph6.4 kmh 29.76 in1007.8 mb 0.00 in0.0 mm 0.00 in0.0 mm 0.00 in0.0 mm
01:54 AM 53.2°F11.8°C 48.5°F9.2°C 84% Calm Calm 4.0 mph6.4 kmh 29.76 in1007.8 mb 0.00 in0.0 mm 0.00 in0.0 mm 0.00 in0.0 mm
01:53 AM 53.2°F11.8°C 48.5°F9.2°C 84% 1.0 mph NNE1.6 kmh NNE 4.0 mph6.4 kmh 29.76 in1007.8 mb 0.00 in0.0 mm 0.00 in0.0 mm 0.00 in0.0 mm
01:52 AM 53.1°F11.7°C 48.4°F9.1°C 84% 1.0 mph NNE1.6 kmh NNE 4.0 mph6.4 kmh 29.76 in1007.8 mb 0.00 in0.0 mm 0.00 in0.0 mm 0.00 in0.0 mm
01:51 AM 53.0°F11.7°C 48.3°F9.1°C 84% 1.0 mph NE1.6 kmh NE 4.0 mph6.4 kmh 29.76 in1007.8 mb 0.00 in0.0 mm 0.00 in0.0 mm 0.00 in0.0 mm
01:50 AM 53.0°F11.7°C 48.6°F9.2°C 85% 1.0 mph ESE1.6 kmh ESE 4.0 mph6.4 kmh 29.76 in1007.8 mb 0.00 in0.0 mm 0.00 in0.0 mm 0.00 in0.0 mm
01:49 AM 52.8°F11.6°C 48.4°F9.1°C 85% 2.0 mph ENE3.2 kmh ENE 4.0 mph6.4 kmh 29.76 in1007.8 mb 0.00 in0.0 mm 0.00 in0.0 mm 0.00 in0.0 mm
01:48 AM 52.8°F11.6°C 48.4°F9.1°C 85% 1.0 mph ENE1.6 kmh ENE 2.0 mph3.2 kmh 29.76 in1007.8 mb 0.00 in0.0 mm 0.00 in0.0 mm 0.00 in0.0 mm
01:47 AM 52.8°F11.6°C 48.4°F9.1°C 85% Calm Calm 2.0 mph3.2 kmh 29.76 in1007.8 mb 0.00 in0.0 mm 0.00 in0.0 mm 0.00 in0.0 mm
01:46 AM 52.9°F11.6°C 48.5°F9.2°C 85% Calm Calm 2.0 mph3.2 kmh 29.76 in1007.8 mb 0.00 in0.0 mm 0.00 in0.0 mm 0.00 in0.0 mm
01:45 AM 52.9°F11.6°C 48.2°F9.0°C 84% Calm Calm 2.0 mph3.2 kmh 29.76 in1007.8 mb 0.00 in0.0 mm 0.00 in0.0 mm 0.00 in0.0 mm
01:44 AM 52.9°F11.6°C 48.2°F9.0°C 84% Calm Calm 2.0 mph3.2 kmh 29.76 in1007.8 mb 0.00 in0.0 mm 0.00 in0.0 mm 0.00 in0.0 mm
01:43 AM 53.0°F11.7°C 48.3°F9.1°C 84% Calm Calm 2.0 mph3.2 kmh 29.76 in1007.8 mb 0.00 in0.0 mm 0.00 in0.0 mm 0.00 in0.0 mm
01:42 AM 53.0°F11.7°C 48.3°F9.1°C 84% Calm Calm 2.0 mph3.2 kmh 29.76 in1007.8 mb 0.00 in0.0 mm 0.00 in0.0 mm 0.00 in0.0 mm
01:41 AM 53.0°F11.7°C 48.3°F9.1°C 84% Calm Calm 2.0 mph3.2 kmh 29.76 in1007.8 mb 0.00 in0.0 mm 0.00 in0.0 mm 0.00 in0.0 mm
01:40 AM 53.1°F11.7°C 48.4°F9.1°C 84% 1.0 mph ENE1.6 kmh ENE 2.0 mph3.2 kmh 29.76 in1007.8 mb 0.00 in0.0 mm 0.00 in0.0 mm 0.00 in0.0 mm
01:39 AM 53.1°F11.7°C 48.4°F9.1°C 84% 1.0 mph ENE1.6 kmh ENE 2.0 mph3.2 kmh 29.76 in1007.8 mb 0.00 in0.0 mm 0.00 in0.0 mm 0.00 in0.0 mm
01:38 AM 53.2°F11.8°C 48.5°F9.2°C 84% 1.0 mph ENE1.6 kmh ENE 2.0 mph3.2 kmh 29.76 in1007.8 mb 0.00 in0.0 mm 0.00 in0.0 mm 0.00 in0.0 mm
01:37 AM 53.2°F11.8°C 48.5°F9.2°C 84% 1.0 mph ENE1.6 kmh ENE 2.0 mph3.2 kmh 29.76 in1007.8 mb 0.00 in0.0 mm 0.00 in0.0 mm 0.00 in0.0 mm
01:36 AM 53.2°F11.8°C 48.5°F9.2°C 84% 2.0 mph ENE3.2 kmh ENE 2.0 mph3.2 kmh 29.76 in1007.8 mb 0.00 in0.0 mm 0.00 in0.0 mm 0.00 in0.0 mm
01:35 AM 53.2°F11.8°C 48.5°F9.2°C 84% 1.0 mph ENE1.6 kmh ENE 1.0 mph1.6 kmh 29.76 in1007.8 mb 0.00 in0.0 mm 0.00 in0.0 mm 0.00 in0.0 mm
01:33 AM 53.3°F11.8°C 48.6°F9.2°C 84% 1.0 mph ENE1.6 kmh ENE 6.0 mph9.7 kmh 29.76 in1007.8 mb 0.00 in0.0 mm 0.00 in0.0 mm 0.00 in0.0 mm